createdAt,value
2018-08-11T00:02:20.560Z,16.75
2018-08-11T00:12:27.543Z,16.59
2018-08-11T00:14:58.216Z,16.76
2018-08-11T00:17:29.163Z,16.80
2018-08-11T00:19:59.491Z,16.72
2018-08-11T00:22:29.448Z,16.72
2018-08-11T00:32:10.781Z,16.61
2018-08-11T00:34:40.720Z,16.46
2018-08-11T00:37:11.837Z,16.53
2018-08-11T00:39:41.990Z,16.52
2018-08-11T00:42:12.886Z,16.57
2018-08-11T00:44:48.565Z,16.55
2018-08-11T00:47:18.883Z,16.57
2018-08-11T00:49:48.944Z,16.48
2018-08-11T00:52:19.877Z,16.57
2018-08-11T00:55:40.348Z,16.50
2018-08-11T00:58:10.301Z,16.41
2018-08-11T01:00:40.632Z,16.29
2018-08-11T01:03:11.252Z,16.29
2018-08-11T01:05:41.249Z,16.28
2018-08-11T01:08:14.410Z,16.23
2018-08-11T01:10:44.857Z,16.24
2018-08-11T01:13:15.106Z,16.31
2018-08-11T01:15:47.210Z,16.22
2018-08-11T01:18:18.098Z,16.27
2018-08-11T01:20:48.252Z,16.23
2018-08-11T01:23:18.296Z,16.23
2018-08-11T01:25:49.372Z,16.25
2018-08-11T01:28:20.238Z,16.19
2018-08-11T01:30:50.176Z,16.22
2018-08-11T01:33:20.216Z,16.18
2018-08-11T01:35:50.710Z,16.08
2018-08-11T01:38:20.999Z,16.09
2018-08-11T01:40:51.124Z,16.04
2018-08-11T01:43:21.732Z,15.95
2018-08-11T01:45:51.722Z,15.98
2018-08-11T01:48:22.100Z,15.90
2018-08-11T01:50:53.988Z,15.89
2018-08-11T02:00:34.897Z,15.64
2018-08-11T02:03:05.209Z,15.66
2018-08-11T02:05:35.232Z,15.63
2018-08-11T02:08:05.436Z,15.65
2018-08-11T02:10:35.510Z,15.72
2018-08-11T02:13:45.165Z,15.56
2018-08-11T02:16:15.340Z,15.55
2018-08-11T02:18:45.542Z,15.56
2018-08-11T02:21:15.868Z,15.57
2018-08-11T02:23:46.093Z,15.62
2018-08-11T02:26:16.100Z,15.68
2018-08-11T02:28:46.297Z,15.62
2018-08-11T02:31:16.259Z,15.65
2018-08-11T02:33:46.328Z,15.64
2018-08-11T02:36:16.711Z,15.57
2018-08-11T02:39:40.051Z,15.58
2018-08-11T02:42:10.278Z,15.62
2018-08-11T02:44:40.244Z,15.64
2018-08-11T02:47:11.907Z,15.62
2018-08-11T02:49:42.586Z,15.51
2018-08-11T02:52:13.681Z,15.51
2018-08-11T02:54:43.651Z,15.51
2018-08-11T02:57:14.113Z,15.56
2018-08-11T03:00:41.151Z,15.62
2018-08-11T03:03:11.179Z,15.62
2018-08-11T03:05:41.145Z,15.65
2018-08-11T03:08:11.933Z,15.65
2018-08-11T03:10:42.025Z,15.62
2018-08-11T03:16:47.511Z,15.56
2018-08-11T03:19:17.487Z,15.49
2018-08-11T03:21:48.207Z,15.46
2018-08-11T03:24:18.215Z,15.47
2018-08-11T03:26:48.023Z,15.54
2018-08-11T03:29:18.806Z,15.59
2018-08-11T03:31:48.769Z,15.73
2018-08-11T03:34:18.847Z,15.78
2018-08-11T03:36:48.796Z,15.84
2018-08-11T03:39:18.814Z,15.88
2018-08-11T03:41:49.766Z,15.84
2018-08-11T03:44:19.697Z,15.90
2018-08-11T03:46:49.580Z,15.90
2018-08-11T03:49:19.756Z,15.91
2018-08-11T03:51:49.830Z,15.92
2018-08-11T03:54:20.709Z,15.95
2018-08-11T03:56:50.706Z,16.03
2018-08-11T03:59:22.394Z,16.02
2018-08-11T04:01:52.338Z,16.02
2018-08-11T04:04:22.437Z,16.09
2018-08-11T04:06:52.657Z,16.11
2018-08-11T04:09:22.670Z,16.18
2018-08-11T04:11:52.521Z,16.18
2018-08-11T04:14:22.391Z,16.25
2018-08-11T04:17:42.322Z,16.18
2018-08-11T04:20:13.743Z,16.17
2018-08-11T04:22:43.731Z,16.21
2018-08-11T04:25:13.957Z,16.20
2018-08-11T04:27:45.982Z,16.24
2018-08-11T04:30:15.937Z,16.19
2018-08-11T04:32:45.937Z,16.31
2018-08-11T04:35:16.183Z,16.34
2018-08-11T04:37:46.055Z,16.39
2018-08-11T04:40:16.155Z,16.49
2018-08-11T04:42:46.151Z,16.46
2018-08-11T04:45:16.590Z,16.46
2018-08-11T04:47:47.151Z,16.49
2018-08-11T04:50:17.198Z,16.55
2018-08-11T04:56:23.559Z,16.76
2018-08-11T04:58:53.787Z,16.96
2018-08-11T05:01:23.963Z,17.05
2018-08-11T05:03:53.877Z,17.02
2018-08-11T05:06:23.723Z,17.13
2018-08-11T05:09:43.670Z,17.42
2018-08-11T05:12:13.525Z,17.79
2018-08-11T05:14:43.387Z,18.48
2018-08-11T05:17:14.119Z,19.67
2018-08-11T05:19:44.521Z,20.12
2018-08-11T05:22:15.495Z,21.22
2018-08-11T05:24:50.054Z,21.87
2018-08-11T05:27:20.417Z,22.98
2018-08-11T05:29:51.531Z,23.06
2018-08-11T05:32:21.937Z,22.74
2018-08-11T05:34:52.436Z,22.49
2018-08-11T05:37:22.887Z,23.02
2018-08-11T05:39:53.295Z,23.18
2018-08-11T05:42:23.840Z,22.96
2018-08-11T05:44:54.401Z,22.96
2018-08-11T05:47:24.983Z,22.80
2018-08-11T05:49:55.461Z,22.56
2018-08-11T05:52:25.940Z,22.50
2018-08-11T05:54:56.342Z,22.49
2018-08-11T06:01:03.196Z,23.20
2018-08-11T06:03:34.429Z,24.48
2018-08-11T06:06:04.994Z,23.92
2018-08-11T06:08:35.470Z,23.53
2018-08-11T06:11:06.959Z,22.71
2018-08-11T06:13:37.678Z,22.42
2018-08-11T06:16:08.196Z,22.09
2018-08-11T06:18:38.715Z,22.02
2018-08-11T06:21:09.060Z,21.86
2018-08-11T06:23:39.592Z,21.69
2018-08-11T06:26:10.480Z,21.91
2018-08-11T06:28:40.982Z,21.70
2018-08-11T06:31:11.326Z,21.27
2018-08-11T06:33:41.882Z,21.19
2018-08-11T06:36:12.478Z,21.34
2018-08-11T06:38:42.881Z,21.36
2018-08-11T06:41:13.676Z,21.41
2018-08-11T06:43:44.012Z,21.60
2018-08-11T06:46:14.362Z,21.97
2018-08-11T06:48:46.068Z,22.40
2018-08-11T06:51:16.466Z,22.36
2018-08-11T06:53:47.600Z,22.41
2018-08-11T06:56:18.036Z,22.40
2018-08-11T06:59:41.310Z,22.55
2018-08-11T07:02:11.782Z,23.03
2018-08-11T07:04:42.274Z,22.76
2018-08-11T07:07:13.874Z,22.89
2018-08-11T07:09:44.316Z,23.18
2018-08-11T07:12:14.830Z,23.05
2018-08-11T07:14:45.414Z,22.56
2018-08-11T07:17:15.864Z,22.47
2018-08-11T07:19:46.312Z,22.75
2018-08-11T07:22:17.297Z,22.28
2018-08-11T07:32:01.581Z,22.41
2018-08-11T07:34:32.154Z,22.79
2018-08-11T07:37:02.711Z,22.85
2018-08-11T07:39:33.140Z,22.90
2018-08-11T07:42:04.048Z,22.85
2018-08-11T07:44:34.533Z,23.21
2018-08-11T07:47:05.077Z,23.33
2018-08-11T07:49:35.481Z,23.51
2018-08-11T07:52:06.667Z,23.14
2018-08-11T07:54:37.128Z,23.21
2018-08-11T07:57:07.700Z,22.76
2018-08-11T07:59:38.782Z,22.40
2018-08-11T08:02:09.883Z,22.47
2018-08-11T08:04:40.286Z,22.73
2018-08-11T08:07:10.803Z,22.81
2018-08-11T08:10:42.339Z,23.01
2018-08-11T08:13:12.845Z,23.33
2018-08-11T08:15:43.197Z,23.85
2018-08-11T08:18:13.696Z,23.73
2018-08-11T08:20:44.146Z,23.50
2018-08-11T08:23:14.701Z,23.61
2018-08-11T08:25:45.189Z,23.87
2018-08-11T08:28:15.686Z,23.93
2018-08-11T08:30:46.315Z,23.92
2018-08-11T08:33:16.753Z,23.62
2018-08-11T08:35:47.517Z,23.52
2018-08-11T08:38:17.990Z,23.51
2018-08-11T08:40:48.479Z,23.95
2018-08-11T08:43:18.875Z,23.83
2018-08-11T08:45:49.297Z,23.81
2018-08-11T08:48:20.618Z,24.04
2018-08-11T08:50:51.520Z,24.14
2018-08-11T08:53:22.036Z,23.81
2018-08-11T08:55:53.497Z,23.67
2018-08-11T08:58:24.637Z,23.89
2018-08-11T09:01:42.817Z,23.97
2018-08-11T09:04:13.319Z,23.94
2018-08-11T09:06:43.835Z,23.52
2018-08-11T09:09:14.305Z,23.23
2018-08-11T09:11:44.794Z,22.99
2018-08-11T09:14:15.344Z,22.77
2018-08-11T09:16:46.204Z,22.86
2018-08-11T09:19:16.707Z,23.13
2018-08-11T09:21:47.127Z,23.21
2018-08-11T09:24:17.550Z,23.54
2018-08-11T09:26:48.216Z,23.93
2018-08-11T09:29:18.754Z,23.94
2018-08-11T09:31:49.438Z,24.10
2018-08-11T09:34:20.599Z,24.03
2018-08-11T09:36:51.130Z,24.22
2018-08-11T09:39:21.749Z,24.35
2018-08-11T09:41:52.224Z,24.31
2018-08-11T09:44:22.717Z,24.04
2018-08-11T09:46:53.227Z,24.03
2018-08-11T09:49:24.091Z,24.31
2018-08-11T09:51:54.707Z,24.51
2018-08-11T09:54:25.203Z,24.65
2018-08-11T09:56:55.690Z,24.64
2018-08-11T09:59:26.168Z,25.02
2018-08-11T10:02:01.815Z,24.78
2018-08-11T10:04:32.316Z,24.89
2018-08-11T10:07:02.783Z,24.58
2018-08-11T10:09:33.265Z,24.56
2018-08-11T10:12:03.776Z,24.60
2018-08-11T10:14:34.367Z,24.91
2018-08-11T10:17:05.049Z,25.09
2018-08-11T10:19:35.493Z,24.99
2018-08-11T10:22:06.027Z,25.24
2018-08-11T10:24:36.443Z,25.86
2018-08-11T10:27:06.958Z,25.57
2018-08-11T10:33:13.889Z,25.38
2018-08-11T10:35:44.301Z,25.46
2018-08-11T10:38:14.691Z,24.94
2018-08-11T10:40:45.450Z,25.04
2018-08-11T10:43:15.852Z,25.07
2018-08-11T10:45:46.400Z,25.35
2018-08-11T10:48:16.896Z,25.29
2018-08-11T10:50:47.424Z,25.12
2018-08-11T10:53:17.868Z,25.35
2018-08-11T10:55:48.306Z,25.17
2018-08-11T10:58:19.066Z,25.36
2018-08-11T11:00:49.450Z,25.79
2018-08-11T11:03:19.876Z,25.68
2018-08-11T11:05:50.264Z,25.45
2018-08-11T11:08:20.647Z,25.25
2018-08-11T11:10:51.382Z,25.14
2018-08-11T11:13:21.690Z,25.33
2018-08-11T11:15:52.074Z,25.45
2018-08-11T11:18:22.444Z,25.56
2018-08-11T11:20:52.880Z,25.64
2018-08-11T11:23:23.538Z,25.43
2018-08-11T11:25:54.008Z,25.51
2018-08-11T11:28:24.394Z,25.40
2018-08-11T11:30:54.888Z,25.10
2018-08-11T11:33:25.524Z,25.09
2018-08-11T11:35:56.442Z,25.09
2018-08-11T11:38:26.804Z,25.12
2018-08-11T11:40:57.118Z,25.10
2018-08-11T11:43:28.041Z,25.33
2018-08-11T11:45:58.556Z,25.53
2018-08-11T11:48:29.905Z,26.03
2018-08-11T11:51:01.016Z,26.39
2018-08-11T11:53:31.844Z,26.41
2018-08-11T11:56:02.200Z,26.72
2018-08-11T11:58:32.570Z,26.62
2018-08-11T12:01:02.966Z,26.31
2018-08-11T12:03:33.366Z,26.21
2018-08-11T12:06:04.351Z,26.45
2018-08-11T12:08:34.718Z,26.33
2018-08-11T12:14:41.420Z,26.65
2018-08-11T12:17:12.168Z,26.59
2018-08-11T12:19:42.548Z,26.53
2018-08-11T12:22:12.952Z,26.70
2018-08-11T12:24:43.354Z,26.56
2018-08-11T12:27:13.700Z,26.80
2018-08-11T12:29:44.066Z,26.83
2018-08-11T12:32:14.586Z,26.86
2018-08-11T12:35:39.808Z,26.87
2018-08-11T12:38:10.244Z,27.01
2018-08-11T12:40:40.590Z,26.92
2018-08-11T12:43:10.695Z,26.74
2018-08-11T12:45:41.052Z,26.72
2018-08-11T12:48:11.448Z,27.08
2018-08-11T12:50:41.778Z,27.21
2018-08-11T12:53:12.179Z,27.30
2018-08-11T12:55:42.649Z,27.03
2018-08-11T12:58:13.105Z,27.07
2018-08-11T13:00:43.592Z,26.90
2018-08-11T13:03:15.597Z,27.27
2018-08-11T13:05:46.400Z,27.52
2018-08-11T13:08:16.569Z,27.43
2018-08-11T13:10:46.657Z,27.09
2018-08-11T13:13:16.701Z,27.04
2018-08-11T13:15:47.135Z,27.13
2018-08-11T13:18:17.537Z,26.86
2018-08-11T13:21:40.807Z,26.92
2018-08-11T13:24:11.599Z,27.07
2018-08-11T13:26:41.662Z,26.97
2018-08-11T13:29:12.039Z,26.82
2018-08-11T13:31:42.377Z,26.76
2018-08-11T13:34:13.075Z,27.12
2018-08-11T13:36:43.120Z,26.85
2018-08-11T13:39:13.547Z,27.19
2018-08-11T13:41:47.166Z,27.12
2018-08-11T13:44:18.718Z,26.97
2018-08-11T13:46:49.152Z,26.73
2018-08-11T13:49:19.541Z,26.42
2018-08-11T13:51:49.976Z,26.75
2018-08-11T13:54:20.522Z,26.93
2018-08-11T13:56:50.816Z,27.00
2018-08-11T13:59:20.973Z,27.15
2018-08-11T14:01:51.386Z,27.12
2018-08-11T14:04:21.802Z,27.10
2018-08-11T14:10:27.872Z,27.33
2018-08-11T14:12:58.577Z,27.67
2018-08-11T14:15:29.026Z,27.62
2018-08-11T14:17:59.137Z,27.54
2018-08-11T14:20:29.604Z,27.46
2018-08-11T14:30:12.767Z,27.08
2018-08-11T14:32:43.247Z,27.14
2018-08-11T14:35:14.139Z,26.97
2018-08-11T14:37:44.600Z,27.18
2018-08-11T14:40:15.040Z,27.05
2018-08-11T14:42:50.904Z,27.23
2018-08-11T14:45:22.113Z,26.82
2018-08-11T14:47:53.762Z,27.14
2018-08-11T14:50:23.917Z,27.22
2018-08-11T14:52:54.261Z,27.04
2018-08-11T14:55:25.167Z,27.18
2018-08-11T14:57:56.297Z,27.12
2018-08-11T15:00:26.469Z,27.13
2018-08-11T15:02:56.883Z,26.95
2018-08-11T15:05:27.363Z,27.05
2018-08-11T15:07:57.607Z,27.21
2018-08-11T15:10:28.538Z,26.98
2018-08-11T15:12:59.067Z,27.27
2018-08-11T15:15:29.629Z,27.07
2018-08-11T15:18:00.114Z,26.87
2018-08-11T15:20:30.616Z,26.75
2018-08-11T15:23:01.032Z,26.66
2018-08-11T15:25:31.446Z,26.93
2018-08-11T15:28:01.946Z,26.73
2018-08-11T15:30:32.231Z,26.92
2018-08-11T15:33:02.871Z,26.90
2018-08-11T15:35:33.226Z,26.75
2018-08-11T15:38:03.352Z,26.90
2018-08-11T15:40:33.746Z,26.95
2018-08-11T15:43:03.889Z,26.65
2018-08-11T15:45:34.417Z,26.65
2018-08-11T15:48:05.459Z,26.78
2018-08-11T15:50:35.930Z,26.56
2018-08-11T15:53:07.440Z,26.65
2018-08-11T15:55:38.444Z,26.57
2018-08-11T15:58:43.419Z,26.60
2018-08-11T16:01:13.818Z,26.50
2018-08-11T16:03:44.359Z,26.45
2018-08-11T16:06:15.489Z,26.10
2018-08-11T16:08:45.985Z,26.25
2018-08-11T16:11:16.408Z,26.35
2018-08-11T16:13:47.038Z,26.42
2018-08-11T16:16:17.914Z,26.41
2018-08-11T16:18:48.950Z,26.51
2018-08-11T16:21:19.154Z,26.59
2018-08-11T16:27:26.000Z,26.22
2018-08-11T16:29:57.098Z,26.27
2018-08-11T16:32:27.607Z,26.23
2018-08-11T16:34:58.480Z,26.00
2018-08-11T16:37:30.020Z,26.12
2018-08-11T16:40:07.312Z,26.17
2018-08-11T16:42:53.880Z,25.85
2018-08-11T16:45:24.351Z,25.84
2018-08-11T16:47:56.736Z,25.90
2018-08-11T16:50:36.162Z,25.93
2018-08-11T17:00:37.586Z,25.47
2018-08-11T17:03:09.330Z,25.34
2018-08-11T17:05:39.783Z,25.35
2018-08-11T17:08:10.720Z,25.34
2018-08-11T17:10:41.118Z,25.36
2018-08-11T17:13:11.694Z,25.36
2018-08-11T17:15:42.804Z,25.43
2018-08-11T17:18:13.914Z,25.38
2018-08-11T17:20:44.467Z,25.47
2018-08-11T17:23:15.700Z,25.34
2018-08-11T17:25:46.272Z,25.30
2018-08-11T17:28:16.732Z,25.28
2018-08-11T17:30:47.181Z,25.17
2018-08-11T17:33:17.771Z,25.15
2018-08-11T17:35:48.146Z,24.99
2018-08-11T17:38:18.604Z,24.88
2018-08-11T17:40:49.010Z,24.83
2018-08-11T17:43:19.450Z,24.72
2018-08-11T17:45:49.976Z,24.80
2018-08-11T17:48:20.361Z,24.67
2018-08-11T17:50:50.752Z,24.61
2018-08-11T17:53:21.156Z,24.63
2018-08-11T17:55:51.562Z,24.56
2018-08-11T17:58:22.162Z,24.47
2018-08-11T18:00:52.576Z,24.32
2018-08-11T18:03:23.139Z,24.20
2018-08-11T18:05:54.131Z,24.05
2018-08-11T18:08:24.586Z,23.99
2018-08-11T18:10:55.031Z,23.91
2018-08-11T18:13:25.432Z,23.84
2018-08-11T18:15:55.841Z,23.64
2018-08-11T18:18:26.284Z,23.62
2018-08-11T18:20:56.664Z,23.54
2018-08-11T18:23:27.359Z,23.38
2018-08-11T18:25:57.909Z,23.32
2018-08-11T18:28:28.326Z,23.30
2018-08-11T18:30:58.766Z,23.13
2018-08-11T18:33:29.223Z,23.08
2018-08-11T18:36:00.112Z,22.92
2018-08-11T18:38:30.889Z,22.74
2018-08-11T18:41:01.322Z,22.59
2018-08-11T18:43:41.816Z,22.48
2018-08-11T18:46:13.099Z,22.37
2018-08-11T18:48:43.618Z,22.24
2018-08-11T18:51:14.168Z,22.13
2018-08-11T18:53:44.602Z,22.09
2018-08-11T18:56:31.067Z,22.03
2018-08-11T18:59:01.994Z,21.99
2018-08-11T19:01:43.815Z,21.84
2018-08-11T19:04:19.124Z,21.76
2018-08-11T19:06:53.130Z,21.69
2018-08-11T19:09:23.934Z,21.62
2018-08-11T19:15:30.156Z,21.61
2018-08-11T19:18:00.644Z,21.47
2018-08-11T19:20:31.202Z,21.41
2018-08-11T19:23:01.660Z,21.38
2018-08-11T19:25:32.051Z,21.25
2018-08-11T19:28:02.630Z,21.20
2018-08-11T19:30:33.050Z,21.14
2018-08-11T19:33:03.492Z,21.09
2018-08-11T19:35:33.861Z,21.02
2018-08-11T19:38:05.237Z,20.96
2018-08-11T19:40:36.077Z,20.93
2018-08-11T19:43:06.508Z,20.87
2018-08-11T19:45:36.926Z,20.83
2018-08-11T19:48:07.388Z,20.80
2018-08-11T19:50:37.788Z,20.79
2018-08-11T19:53:08.208Z,20.78
2018-08-11T19:55:38.610Z,20.77
2018-08-11T19:58:09.000Z,20.68
2018-08-11T20:00:39.777Z,20.65
2018-08-11T20:03:10.630Z,20.49
2018-08-11T20:05:41.068Z,20.40
2018-08-11T20:08:13.934Z,20.43
2018-08-11T20:10:44.387Z,20.47
2018-08-11T20:13:15.560Z,20.38
2018-08-11T20:15:46.154Z,20.47
2018-08-11T20:18:16.534Z,20.44
2018-08-11T20:20:47.234Z,20.48
2018-08-11T20:23:17.656Z,20.37
2018-08-11T20:25:48.097Z,20.43
2018-08-11T20:28:18.993Z,20.31
2018-08-11T20:30:50.116Z,20.20
2018-08-11T20:33:20.526Z,20.23
2018-08-11T20:35:50.963Z,19.18
2018-08-11T20:38:21.379Z,18.53
2018-08-11T20:40:51.325Z,18.30
2018-08-11T20:43:21.767Z,18.31
2018-08-11T20:45:51.979Z,18.47
2018-08-11T20:48:21.841Z,18.59
2018-08-11T20:50:52.236Z,18.76
2018-08-11T20:53:22.135Z,18.79
2018-08-11T20:55:52.903Z,18.84
2018-08-11T20:58:23.357Z,18.93
2018-08-11T21:00:55.024Z,18.93
2018-08-11T21:03:25.418Z,18.96
2018-08-11T21:05:55.831Z,19.08
2018-08-11T21:08:26.710Z,19.05
2018-08-11T21:10:57.113Z,19.20
2018-08-11T21:20:40.245Z,18.62
2018-08-11T21:23:10.718Z,18.49
2018-08-11T21:25:42.239Z,18.40
2018-08-11T21:28:13.359Z,18.49
2018-08-11T21:30:43.813Z,18.62
2018-08-11T21:33:15.227Z,18.67
2018-08-11T21:35:45.731Z,18.63
2018-08-11T21:38:16.290Z,18.61
2018-08-11T21:40:46.885Z,18.77
2018-08-11T21:43:17.365Z,18.61
2018-08-11T21:45:47.216Z,18.62
2018-08-11T21:48:17.632Z,18.45
2018-08-11T21:50:47.539Z,18.37
2018-08-11T21:56:53.813Z,18.16
2018-08-11T21:59:24.998Z,18.07
2018-08-11T22:01:55.304Z,17.92
2018-08-11T22:04:29.787Z,17.99
2018-08-11T22:06:59.649Z,18.00
2018-08-11T22:09:29.636Z,17.89
2018-08-11T22:11:59.675Z,17.74
2018-08-11T22:14:29.636Z,17.82
2018-08-11T22:17:00.333Z,17.87
2018-08-11T22:19:30.241Z,17.78
2018-08-11T22:22:00.243Z,17.80
2018-08-11T22:24:30.129Z,17.89
2018-08-11T22:27:00.295Z,18.01
2018-08-11T22:29:30.131Z,18.00
2018-08-11T22:32:00.001Z,17.93
2018-08-11T22:34:30.360Z,17.73
2018-08-11T22:37:00.187Z,17.68
2018-08-11T22:39:30.082Z,17.61
2018-08-11T22:41:59.975Z,17.62
2018-08-11T22:44:29.823Z,17.55
2018-08-11T22:46:59.932Z,17.61
2018-08-11T22:49:29.915Z,17.63
2018-08-11T22:52:00.100Z,17.80
2018-08-11T22:54:29.994Z,17.45
2018-08-11T22:57:00.056Z,17.37
2018-08-11T22:59:30.430Z,17.27
2018-08-11T23:02:00.398Z,17.44
2018-08-11T23:04:30.306Z,17.52
2018-08-11T23:07:00.477Z,17.45
2018-08-11T23:09:30.440Z,17.29
2018-08-11T23:12:00.706Z,17.16
2018-08-11T23:14:30.592Z,17.19
2018-08-11T23:17:00.478Z,17.28
2018-08-11T23:19:30.448Z,17.26
2018-08-11T23:22:00.448Z,17.27
2018-08-11T23:24:30.269Z,17.44
2018-08-11T23:27:00.181Z,17.24
2018-08-11T23:29:30.081Z,17.22
2018-08-11T23:32:00.065Z,17.00
2018-08-11T23:34:30.262Z,17.16
2018-08-11T23:37:00.560Z,16.89
2018-08-11T23:39:30.396Z,16.93
2018-08-11T23:42:01.986Z,16.75
2018-08-11T23:44:31.850Z,16.89
2018-08-11T23:47:42.053Z,16.90
2018-08-11T23:50:12.866Z,16.83
2018-08-11T23:52:43.464Z,16.83
2018-08-11T23:55:14.878Z,16.83
2018-08-11T23:58:41.204Z,16.72
